createdAt,value
2018-06-15T04:40:01.311Z,1013.76
2018-06-15T04:45:01.250Z,1013.76
2018-06-15T04:55:01.254Z,1013.69
2018-06-15T05:00:01.292Z,1013.73
2018-06-15T05:05:01.225Z,1013.73
2018-06-15T05:10:01.216Z,1013.82
2018-06-15T05:15:01.283Z,1013.82
2018-06-15T05:20:01.232Z,1013.9
2018-06-15T05:30:01.246Z,1014.02
2018-06-15T05:40:01.300Z,1014.12
2018-06-15T05:45:01.271Z,1014.12
2018-06-15T05:50:01.474Z,1014.25
2018-06-15T06:00:01.272Z,1014.14
2018-06-15T06:05:01.134Z,1014.14
2018-06-15T06:10:01.265Z,1014.22
2018-06-15T06:15:01.260Z,1014.22
2018-06-15T06:20:01.267Z,1014.26
2018-06-15T06:25:01.168Z,1014.26
2018-06-15T06:30:01.302Z,1014.38
2018-06-15T06:35:01.142Z,1014.38
2018-06-15T06:40:01.265Z,1014.42
2018-06-15T06:45:01.279Z,1014.42
2018-06-15T06:50:01.241Z,1014.53
2018-06-15T06:55:01.192Z,1014.53
2018-06-15T07:00:01.413Z,1014.63
2018-06-15T07:05:01.203Z,1014.63
2018-06-15T07:10:01.301Z,1014.64
2018-06-15T07:15:01.289Z,1014.64
2018-06-15T07:20:01.245Z,1014.77
2018-06-15T07:25:01.193Z,1014.77
2018-06-15T07:30:01.329Z,1014.82
2018-06-15T07:35:01.223Z,1014.82
2018-06-15T07:40:01.297Z,1014.87
2018-06-15T07:45:01.265Z,1014.87
2018-06-15T07:50:01.263Z,1014.89
2018-06-15T07:55:01.260Z,1014.89
2018-06-15T08:00:01.395Z,1014.85
2018-06-15T08:05:01.187Z,1014.85
2018-06-15T08:10:01.250Z,1014.98
2018-06-15T08:15:01.284Z,1014.98
2018-06-15T08:20:01.315Z,1014.95
2018-06-15T08:25:01.201Z,1014.95
2018-06-15T08:30:01.371Z,1014.95
2018-06-15T08:35:01.196Z,1014.95
2018-06-15T08:40:01.218Z,1015.02
2018-06-15T08:45:01.334Z,1015.02
2018-06-15T08:50:01.386Z,1014.98
2018-06-15T08:55:01.198Z,1014.98
2018-06-15T09:00:01.474Z,1015.04
2018-06-15T09:05:01.175Z,1015.04
2018-06-15T09:10:01.329Z,1014.97
2018-06-15T09:15:01.374Z,1014.97
2018-06-15T09:20:01.275Z,1015.01
2018-06-15T09:25:01.165Z,1015.01
2018-06-15T09:30:01.347Z,1014.95
2018-06-15T09:45:01.400Z,1014.94
2018-06-15T09:50:01.405Z,1015.08
2018-06-15T09:55:01.180Z,1015.08
2018-06-15T10:00:01.439Z,1015.0
2018-06-15T10:10:01.288Z,1014.99
2018-06-15T10:15:01.395Z,1014.99
2018-06-15T10:20:01.343Z,1015.14
2018-06-15T10:30:01.392Z,1014.95
2018-06-15T10:35:01.237Z,1014.95
2018-06-15T10:40:01.356Z,1015.04
2018-06-15T10:45:01.383Z,1015.04
2018-06-15T10:50:01.360Z,1015.14
2018-06-15T10:55:01.256Z,1015.14
2018-06-15T11:00:01.498Z,1015.15
2018-06-15T11:05:01.200Z,1015.15
2018-06-15T11:10:01.301Z,1015.16
2018-06-15T11:15:01.372Z,1015.16
2018-06-15T11:20:01.361Z,1015.05
2018-06-15T11:25:01.241Z,1015.05
2018-06-15T11:30:01.489Z,1015.0
2018-06-15T11:35:01.230Z,1015.0
2018-06-15T11:40:01.364Z,1015.01
2018-06-15T11:45:01.379Z,1015.01
2018-06-15T11:55:01.295Z,1015.05
2018-06-15T12:00:01.410Z,1015.0
2018-06-15T12:05:01.265Z,1015.0
2018-06-15T12:10:01.299Z,1015.0
2018-06-15T12:15:01.377Z,1015.0
2018-06-15T12:25:01.384Z,1015.06
2018-06-15T12:30:01.451Z,1014.97
2018-06-15T12:35:01.248Z,1014.97
2018-06-15T12:40:01.268Z,1015.05
2018-06-15T12:45:01.448Z,1015.05
2018-06-15T12:50:01.262Z,1015.1
2018-06-15T12:55:01.236Z,1015.1
2018-06-15T13:00:01.523Z,1015.05
2018-06-15T13:05:01.259Z,1015.05
2018-06-15T13:15:01.492Z,1015.07
2018-06-15T13:20:01.294Z,1015.02
2018-06-15T13:25:01.239Z,1015.02
2018-06-15T13:30:01.455Z,1015.1
2018-06-15T13:35:01.217Z,1015.1
2018-06-15T13:40:01.324Z,1015.11
2018-06-15T13:45:01.403Z,1015.11
2018-06-15T13:50:01.272Z,1015.05
2018-06-15T14:00:01.463Z,1015.13
2018-06-15T14:10:01.404Z,1015.19
2018-06-15T14:15:01.410Z,1015.19
2018-06-15T14:20:01.289Z,1015.15
2018-06-15T14:25:01.357Z,1015.15
2018-06-15T14:30:01.516Z,1015.23
2018-06-15T14:40:01.406Z,1015.18
2018-06-15T14:45:01.375Z,1015.18
2018-06-15T14:50:01.405Z,1015.11
2018-06-15T14:55:01.316Z,1015.11
2018-06-15T15:00:01.500Z,1015.1
2018-06-15T15:05:01.276Z,1015.1
2018-06-15T15:10:01.381Z,1015.12
2018-06-15T15:15:01.454Z,1015.12
2018-06-15T15:20:01.359Z,1015.16
2018-06-15T15:30:01.714Z,1015.17
2018-06-15T15:35:01.288Z,1015.17
2018-06-15T15:40:01.370Z,1015.07
2018-06-15T15:45:01.776Z,1015.07
2018-06-15T15:50:01.375Z,1015.04
2018-06-15T16:00:01.491Z,1015.09
2018-06-15T16:05:01.300Z,1015.09
2018-06-15T16:15:01.580Z,1015.03
2018-06-15T16:20:01.413Z,1015.08
2018-06-15T16:25:01.310Z,1015.08
2018-06-15T16:30:01.522Z,1015.18
2018-06-15T16:35:01.457Z,1015.18
2018-06-15T16:40:01.403Z,1015.19
2018-06-15T16:45:01.420Z,1015.19
2018-06-15T16:50:01.546Z,1015.16
2018-06-15T16:55:01.419Z,1015.16
2018-06-15T17:00:01.515Z,1015.15
2018-06-15T17:10:01.484Z,1015.2
2018-06-15T17:15:01.434Z,1015.2
2018-06-15T17:20:01.425Z,1015.17
2018-06-15T17:25:01.503Z,1015.17
2018-06-15T17:30:06.480Z,1015.1
2018-06-15T17:45:01.462Z,1015.04
2018-06-15T18:00:01.421Z,1014.98
2018-06-15T18:05:01.443Z,1014.98
2018-06-15T18:10:01.425Z,1015.12
2018-06-15T18:15:01.489Z,1015.12
2018-06-15T18:20:01.459Z,1015.04
2018-06-15T18:25:01.436Z,1015.04
2018-06-15T18:30:01.451Z,1015.16
2018-06-15T18:35:01.476Z,1015.16
2018-06-15T18:40:01.462Z,1015.16
2018-06-15T18:45:01.484Z,1015.16
2018-06-15T18:50:01.479Z,1015.15
2018-06-15T18:55:01.474Z,1015.15
2018-06-15T19:00:01.489Z,1015.12
2018-06-15T19:05:01.478Z,1015.12
2018-06-15T19:10:01.488Z,1015.1
2018-06-15T19:15:01.530Z,1015.1
2018-06-15T19:20:01.482Z,1015.25
2018-06-15T19:25:01.489Z,1015.25
2018-06-15T19:30:01.439Z,1015.27
2018-06-15T19:45:01.466Z,1015.28
2018-06-15T19:55:01.475Z,1015.32
2018-06-15T20:00:01.442Z,1015.41
2018-06-15T20:05:01.618Z,1015.41
2018-06-15T20:10:01.497Z,1015.38
2018-06-15T20:15:01.467Z,1015.38
2018-06-15T20:20:01.429Z,1015.34
2018-06-15T20:30:01.488Z,1015.31
2018-06-15T20:35:01.500Z,1015.31
2018-06-15T20:40:01.486Z,1015.4
2018-06-15T20:45:01.520Z,1015.4
2018-06-15T20:50:01.511Z,1015.43
2018-06-15T20:55:01.473Z,1015.43
2018-06-15T21:00:01.491Z,1015.44
2018-06-15T21:05:01.476Z,1015.44
2018-06-15T21:10:01.550Z,1015.42
2018-06-15T21:15:01.861Z,1015.42
2018-06-15T21:20:01.481Z,1015.39
2018-06-15T21:25:01.511Z,1015.39
2018-06-15T21:30:01.558Z,1015.29
2018-06-15T21:40:01.449Z,1015.25
2018-06-15T21:45:01.355Z,1015.25
2018-06-15T21:55:01.326Z,1015.26
2018-06-15T22:00:01.465Z,1015.28
2018-06-15T22:05:01.602Z,1015.28
2018-06-15T22:15:01.517Z,1015.18
2018-06-15T22:31:01.459Z,1015.22
2018-06-15T22:36:01.348Z,1015.22
2018-06-15T22:46:01.607Z,1015.25
2018-06-15T22:51:01.461Z,1015.24
2018-06-15T23:01:01.577Z,1015.2
2018-06-15T23:16:01.673Z,1015.31
2018-06-15T23:32:01.449Z,1015.53
2018-06-15T23:42:01.446Z,1015.44
2018-06-15T23:52:01.511Z,1015.42
2018-06-15T23:57:01.394Z,1015.42
